This is the latest recevied weather packets stored in our database for station/object W8AN. If no packets are shown the sender has not sent any weather packets the latest 10 day(s).
| Time | Temp. | Humidity | Pressure | Rain* | Wind** | Luminosity | Snow |
|---|---|---|---|---|---|---|---|
| 1778023509 | 9.44° C | 83% | 4263.2 hPa | 3.05 mm | - | 17 W/m² | - |
| 1778023206 | 9.44° C | 83% | 4263.3 hPa | 1.78 mm | - | 18 W/m² | - |
| 1778022903 | 9.44° C | 83% | 4263.4 hPa | 3.05 mm | - | 13 W/m² | - |
| 1778022602 | 9.44° C | 82% | 4263.3 hPa | 1.27 mm | - | 13 W/m² | - |
| 1778022299 | 9.44° C | 82% | 4263.2 hPa | 0 mm | - | 12 W/m² | - |
| 1778021995 | 9.44° C | 82% | 4263.2 hPa | 0 mm | - | 18 W/m² | - |
| 1778021692 | 9.44° C | 82% | 4263 hPa | 0 mm | - | 21 W/m² | - |
| 1778021388 | 9.44° C | 82% | 4263.2 hPa | 0 mm | - | 16 W/m² | - |
| 1778021085 | 9.44° C | 82% | 4263 hPa | 0 mm | - | 12 W/m² | - |
| 1778020783 | 9.44° C | 82% | 4262.8 hPa | 0 mm | - | 31 W/m² | - |
| 1778020479 | 9.44° C | 82% | 4262.9 hPa | 0 mm | - | 33 W/m² | - |
| 1778020176 | 10° C | 82% | 4263.1 hPa | 0 mm | - | 23 W/m² | - |
| 1778019872 | 10° C | 83% | 4263.1 hPa | 0 mm | - | 32 W/m² | - |
| 1778019568 | 10° C | 83% | 4263 hPa | 0 mm | - | 37 W/m² | - |
| 1778019266 | 9.44° C | 83% | 4263.2 hPa | 0 mm | - | 35 W/m² | - |
| 1778018962 | 9.44° C | 83% | 4262.9 hPa | 0 mm | - | 49 W/m² | - |
| 1778018659 | 9.44° C | 83% | 4263.2 hPa | 1.78 mm | - | 42 W/m² | - |
| 1778018357 | 9.44° C | 83% | 4262.9 hPa | 1.78 mm | - | 44 W/m² | - |
| 1778018055 | 10° C | 83% | 4263 hPa | 0 mm | - | 51 W/m² | - |
| 1778017752 | 10° C | 83% | 4262.8 hPa | 1.27 mm | - | 77 W/m² | - |
| 1778017450 | 9.44° C | 83% | 4262.7 hPa | 3.05 mm | - | 67 W/m² | - |
| 1778017147 | 9.44° C | 83% | 4263.1 hPa | 3.56 mm | - | 46 W/m² | - |
| 1778016845 | 10° C | 83% | 4262.8 hPa | 1.78 mm | - | 51 W/m² | - |
| 1778016541 | 10° C | 83% | 4262.9 hPa | 1.27 mm | - | 51 W/m² | - |
| 1778016238 | 9.44° C | 83% | 4262.7 hPa | 1.27 mm | - | 53 W/m² | - |
* Rain latest hour (hover to see other rain measurements)
** Current wind speed in m/s (hover to see current wind gust speed)